Flagstaff (FLG/KFLG)

Map

Destinations

Information

Location
Flagstaff, AZ
Local Time
19:49 / 7:49 pm
GMT Time
02:49 / 2:49 am
Gates
Unassigned
No FAA reported delays
METAR KFLG 170157Z 00000KT 10SM FEW008 BKN018 BKN023 02/00 A3005 RMK AO2 SLP163 T00170000
TAF KFLG 162332Z 1700/1724 VRB05KT P6SM SCT020 BKN030 FM170500 VRB05KT P6SM BKN040 BKN100 FM171800 VRB05KT P6SM SCT040 BKN060
  • No charts available